地図

経路データ

SID SEASON NUMBER BASIN SUBBASIN NAME ISO_TIME NATURE LAT LON WMO_WIND WMO_PRES WMO_AGENCY TRACK_TYPE DIST2LAND LANDFALL IFLAG USA_AGENCY USA_ATCF_ID USA_LAT USA_LON USA_RECORD USA_STATUS USA_WIND USA_PRES USA_SSHS USA_R34_NE USA_R34_SE USA_R34_SW USA_R34_NW USA_R50_NE USA_R50_SE USA_R50_SW USA_R50_NW USA_R64_NE USA_R64_SE USA_R64_SW USA_R64_NW USA_POCI USA_ROCI USA_RMW USA_EYE TOKYO_LAT TOKYO_LON TOKYO_GRADE TOKYO_WIND TOKYO_PRES TOKYO_R50_DIR TOKYO_R50_LONG TOKYO_R50_SHORT TOKYO_R30_DIR TOKYO_R30_LONG TOKYO_R30_SHORT TOKYO_LAND CMA_LAT CMA_LON CMA_CAT CMA_WIND CMA_PRES HKO_LAT HKO_LON HKO_CAT HKO_WIND HKO_PRES NEWDELHI_LAT NEWDELHI_LON NEWDELHI_GRADE NEWDELHI_WIND NEWDELHI_PRES NEWDELHI_CI NEWDELHI_DP NEWDELHI_POCI REUNION_LAT REUNION_LON REUNION_TYPE REUNION_WIND REUNION_PRES REUNION_TNUM REUNION_CI REUNION_RMW REUNION_R34_NE REUNION_R34_SE REUNION_R34_SW REUNION_R34_NW REUNION_R50_NE REUNION_R50_SE REUNION_R50_SW REUNION_R50_NW REUNION_R64_NE REUNION_R64_SE REUNION_R64_SW REUNION_R64_NW BOM_LAT BOM_LON BOM_TYPE BOM_WIND BOM_PRES BOM_TNUM BOM_CI BOM_RMW BOM_R34_NE BOM_R34_SE BOM_R34_SW BOM_R34_NW BOM_R50_NE BOM_R50_SE BOM_R50_SW BOM_R50_NW BOM_R64_NE BOM_R64_SE BOM_R64_SW BOM_R64_NW BOM_ROCI BOM_POCI BOM_EYE BOM_POS_METHOD BOM_PRES_METHOD NADI_LAT NADI_LON NADI_CAT NADI_WIND NADI_PRES WELLINGTON_LAT WELLINGTON_LON WELLINGTON_WIND WELLINGTON_PRES DS824_LAT DS824_LON DS824_STAGE DS824_WIND DS824_PRES TD9636_LAT TD9636_LON TD9636_STAGE TD9636_WIND TD9636_PRES TD9635_LAT TD9635_LON TD9635_WIND TD9635_PRES TD9635_ROCI NEUMANN_LAT NEUMANN_LON NEUMANN_CLASS NEUMANN_WIND NEUMANN_PRES MLC_LAT MLC_LON MLC_CLASS MLC_WIND MLC_PRES USA_GUST BOM_GUST BOM_GUST_PER REUNION_GUST REUNION_GUST_PER USA_SEAHGT USA_SEARAD_NE USA_SEARAD_SE USA_SEARAD_SW USA_SEARAD_NW STORM_SPEED STORM_DIR
1860245N20333 1860 25 NA NA NOT_NAMED 1860-08-31 12:00:00 TS 20.5000 -27.5000 main 1082 1082 _____________O -1 20.5000 -27.5000 TS 35 13 314
1860245N20333 1860 25 NA NA NOT_NAMED 1860-08-31 15:00:00 TS 20.9503 -27.9994 main 1132 1132 _____________P -1 20.9503 -27.9994 TS 35 13 314
1860245N20333 1860 25 NA NA NOT_NAMED 1860-08-31 18:00:00 TS 21.4000 -28.5000 main 1184 1184 _____________O -1 21.4000 -28.5000 TS 35 13 314
1860245N20333 1860 25 NA NA NOT_NAMED 1860-08-31 21:00:00 TS 21.8498 -29.0003 main 1237 1237 _____________P -1 21.8498 -29.0003 TS 35 13 314
1860245N20333 1860 25 NA NA NOT_NAMED 1860-09-01 00:00:00 TS 22.3000 -29.5000 main 1288 1288 _____________O -1 22.3000 -29.5000 TS 35 13 314
1860245N20333 1860 25 NA NA NOT_NAMED 1860-09-01 03:00:00 TS 22.7573 -30.0002 main 1341 1341 _____________P -1 22.7573 -30.0002 TS 35 13 314
1860245N20333 1860 25 NA NA NOT_NAMED 1860-09-01 06:00:00 TS 23.2000 -30.5000 main 1394 1394 _____________O -1 23.2000 -30.5000 TS 35 12 313
1860245N20333 1860 25 NA NA NOT_NAMED 1860-09-01 09:00:00 TS 23.5922 -30.9857 main 1448 1448 _____________P -1 23.5922 -30.9857 TS 40 12 311
1860245N20333 1860 25 NA NA NOT_NAMED 1860-09-01 12:00:00 TS 24.0000 -31.5000 main 1504 1504 _____________O -1 24.0000 -31.5000 TS 45 14 311
1860245N20333 1860 25 NA NA NOT_NAMED 1860-09-01 15:00:00 TS 24.4850 -32.0925 main 1571 1571 _____________P -1 24.4850 -32.0925 TS 45 15 312
1860245N20333 1860 25 NA NA NOT_NAMED 1860-09-01 18:00:00 TS 25.0000 -32.7000 main 1617 1617 _____________O -1 25.0000 -32.7000 TS 45 15 314
1860245N20333 1860 25 NA NA NOT_NAMED 1860-09-01 21:00:00 TS 25.4997 -33.2580 main 1661 1658 _____________P -1 25.4997 -33.2580 TS 45 14 315
1860245N20333 1860 25 NA NA NOT_NAMED 1860-09-02 00:00:00 TS 26.0000 -33.8000 main 1697 1697 _____________O -1 26.0000 -33.8000 TS 45 14 316
1860245N20333 1860 25 NA NA NOT_NAMED 1860-09-02 03:00:00 TS 26.4998 -34.3505 main 1745 1743 _____________P -1 26.4998 -34.3505 TS 45 14 315
1860245N20333 1860 25 NA NA NOT_NAMED 1860-09-02 06:00:00 TS 27.0000 -34.9000 main 1785 1785 _____________O -1 27.0000 -34.9000 TS 45 14 315
1860245N20333 1860 25 NA NA NOT_NAMED 1860-09-02 09:00:00 TS 27.4846 -35.4360 main 1826 1826 _____________P -1 27.4846 -35.4360 TS 50 14 316
1860245N20333 1860 25 NA NA NOT_NAMED 1860-09-02 12:00:00 TS 28.0000 -36.0000 main 1878 1878 _____________O -1 28.0000 -36.0000 TS 55 15 316
1860245N20333 1860 25 NA NA NOT_NAMED 1860-09-02 15:00:00 TS 28.5925 -36.6425 main 1931 1931 _____________P -1 28.5925 -36.6425 TS 55 17 316
1860245N20333 1860 25 NA NA NOT_NAMED 1860-09-02 18:00:00 TS 29.2000 -37.3000 main 1996 1996 _____________O -1 29.2000 -37.3000 TS 55 16 317
1860245N20333 1860 25 NA NA NOT_NAMED 1860-09-02 21:00:00 TS 29.7570 -37.9010 main 2052 2052 _____________P -1 29.7570 -37.9010 TS 55 15 317
1860245N20333 1860 25 NA NA NOT_NAMED 1860-09-03 00:00:00 TS 30.3000 -38.5000 main 2110 2110 _____________O -1 30.3000 -38.5000 TS 55 15 315
1860245N20333 1860 25 NA NA NOT_NAMED 1860-09-03 03:00:00 TS 30.8499 -39.1505 main 2128 2042 _____________P -1 30.8499 -39.1505 TS 55 16 315
1860245N20333 1860 25 NA NA NOT_NAMED 1860-09-03 06:00:00 TS 31.4000 -39.8000 main 2042 1965 _____________O -1 31.4000 -39.8000 TS 55 16 315
1860245N20333 1860 25 NA NA NOT_NAMED 1860-09-03 09:00:00 TS 31.9500 -40.4378 main 1965 1879 _____________P -1 31.9500 -40.4378 TS 57 15 317
1860245N20333 1860 25 NA NA NOT_NAMED 1860-09-03 12:00:00 TS 32.5000 -41.0000 main 1879 1812 _____________O -1 32.5000 -41.0000 TS 60 14 323
1860245N20333 1860 25 NA NA NOT_NAMED 1860-09-03 15:00:00 TS 33.0571 -41.4383 main 1802 1735 _____________P -1 33.0571 -41.4383 TS 60 13 329
1860245N20333 1860 25 NA NA NOT_NAMED 1860-09-03 18:00:00 TS 33.6000 -41.8000 main 1735 1673 _____________O -1 33.6000 -41.8000 TS 60 12 330
1860245N20333 1860 25 NA NA NOT_NAMED 1860-09-03 21:00:00 TS 34.0998 -42.1509 main 1669 1607 _____________P -1 34.0998 -42.1509 TS 65 12 330
1860245N20333 1860 25 NA NA NOT_NAMED 1860-09-04 00:00:00 TS 34.6000 -42.5000 main 1607 1526 _____________O -1 34.6000 -42.5000 HU 70 14 321
1860245N20333 1860 25 NA NA NOT_NAMED 1860-09-04 03:00:00 TS 35.1552 -43.1871 main 1517 1464 _____________P -1 35.1552 -43.1871 HU 70 13 329
1860245N20333 1860 25 NA NA NOT_NAMED 1860-09-04 06:00:00 TS 35.7000 -43.3000 main 1464 1459 _____________O -1 35.7000 -43.3000 HU 70 15 45
1860245N20333 1860 25 NA NA NOT_NAMED 1860-09-04 09:00:00 TS 36.2425 -41.8359 main 1492 1488 _____________P -1 36.2425 -41.8359 HU 70 27 71
1860245N20333 1860 25 NA NA NOT_NAMED 1860-09-04 12:00:00 TS 36.6000 -40.1000 main 1550 1550 _____________O -1 36.6000 -40.1000 HU 70 19 78
1860245N20333 1860 25 NA NA NOT_NAMED 1860-09-04 15:00:00 TS 36.6561 -39.4668 main 1576 1576 _____________P -1 36.6561 -39.4668 HU 70 7 90
1860245N20333 1860 25 NA NA NOT_NAMED 1860-09-04 18:00:00 TS 36.6000 -39.2000 main 1602 1602 _____________O -1 36.6000 -39.2000 HU 70 5 91
1860245N20333 1860 25 NA NA NOT_NAMED 1860-09-04 21:00:00 TS 36.6499 -38.7852 main 1626 1618 _____________P -1 36.6499 -38.7852 HU 70 6 81
1860245N20333 1860 25 NA NA NOT_NAMED 1860-09-05 00:00:00 TS 36.7000 -38.4000 main 1642 1642 _____________O -1 36.7000 -38.4000 HU 70 6 84
1860245N20333 1860 25 NA NA NOT_NAMED 1860-09-05 03:00:00 TS 36.7073 -38.0499 main 1667 1667 _____________P -1 36.7073 -38.0499 HU 70 6 90
1860245N20333 1860 25 NA NA NOT_NAMED 1860-09-05 06:00:00 TS 36.7000 -37.7000 main 1685 1685 _____________O -1 36.7000 -37.7000 HU 70 6 91
1860245N20333 1860 25 NA NA NOT_NAMED 1860-09-05 09:00:00 TS 36.6999 -37.3075 main 1710 1710 _____________P -1 36.6999 -37.3075 HU 70 6 90
1860245N20333 1860 25 NA NA NOT_NAMED 1860-09-05 12:00:00 TS 36.7000 -36.9000 main 1735 1735 _____________O -1 36.7000 -36.9000 HU 70 6 90
1860245N20333 1860 25 NA NA NOT_NAMED 1860-09-05 15:00:00 TS 36.6999 -36.5000 main 1760 1760 _____________P -1 36.6999 -36.5000 HU 70 6 90
1860245N20333 1860 25 NA NA NOT_NAMED 1860-09-05 18:00:00 TS 36.7000 -36.1000 main 1786 1786 _____________O -1 36.7000 -36.1000 HU 70 6 90
1860245N20333 1860 25 NA NA NOT_NAMED 1860-09-05 21:00:00 TS 36.6999 -35.7000 main 1811 1811 _____________P -1 36.6999 -35.7000 HU 70 6 90
1860245N20333 1860 25 NA NA NOT_NAMED 1860-09-06 00:00:00 TS 36.7000 -35.3000 main 1837 1837 _____________O -1 36.7000 -35.3000 HU 70 6 90
1860245N20333 1860 25 NA NA NOT_NAMED 1860-09-06 03:00:00 TS 36.6999 -34.9000 main 1863 1863 _____________P -1 36.6999 -34.9000 HU 70 6 90
1860245N20333 1860 25 NA NA NOT_NAMED 1860-09-06 06:00:00 TS 36.7000 -34.5000 main 1889 1866 _____________O -1 36.7000 -34.5000 HU 70 6 90
1860245N20333 1860 25 NA NA NOT_NAMED 1860-09-06 09:00:00 TS 36.6999 -34.1000 main 1866 1834 _____________P -1 36.6999 -34.1000 HU 70 6 90
1860245N20333 1860 25 NA NA NOT_NAMED 1860-09-06 12:00:00 TS 36.7000 -33.7000 main 1834 1802 _____________O -1 36.7000 -33.7000 HU 70 6 90
1860245N20333 1860 25 NA NA NOT_NAMED 1860-09-06 15:00:00 TS 36.6999 -33.3000 main 1802 1770 _____________P -1 36.6999 -33.3000 HU 70 6 90
1860245N20333 1860 25 NA NA NOT_NAMED 1860-09-06 18:00:00 TS 36.7000 -32.9000 main 1770 1739 _____________O -1 36.7000 -32.9000 HU 70 6 91
1860245N20333 1860 25 NA NA NOT_NAMED 1860-09-06 21:00:00 TS 36.6924 -32.4999 main 1739 1707 _____________P -1 36.6924 -32.4999 HU 67 6 90
1860245N20333 1860 25 NA NA NOT_NAMED 1860-09-07 00:00:00 TS 36.7000 -32.1000 main 1707 1676 _____________O -1 36.7000 -32.1000 HU 65 6 85
1860245N20333 1860 25 NA NA NOT_NAMED 1860-09-07 03:00:00 TS 36.7499 -31.7002 main 1676 1651 _____________P -1 36.7499 -31.7002 HU 65 6 81
1860245N20333 1860 25 NA NA NOT_NAMED 1860-09-07 06:00:00 TS 36.8000 -31.3000 main 1651 1621 _____________O -1 36.8000 -31.3000 HU 65 6 85
1860245N20333 1860 25 NA NA NOT_NAMED 1860-09-07 09:00:00 TS 36.7997 -30.9147 main 1621 1591 _____________P -1 36.7997 -30.9147 HU 65 6 90
1860245N20333 1860 25 NA NA NOT_NAMED 1860-09-07 12:00:00 TS 36.8000 -30.5000 main 1591 1554 _____________O -1 36.8000 -30.5000 HU 65 7 87
1860245N20333 1860 25 NA NA NOT_NAMED 1860-09-07 15:00:00 TS 36.8350 -30.0149 main 1554 1523 _____________P -1 36.8350 -30.0149 HU 65 8 83
1860245N20333 1860 25 NA NA NOT_NAMED 1860-09-07 18:00:00 TS 36.9000 -29.5000 main 1523 1494 _____________O -1 36.9000 -29.5000 HU 65 8 79
1860245N20333 1860 25 NA NA NOT_NAMED 1860-09-07 21:00:00 TS 36.9923 -29.0000 main 1494 1466 _____________P -1 36.9923 -29.0000 HU 65 8 76
1860245N20333 1860 25 NA NA NOT_NAMED 1860-09-08 00:00:00 TS 37.1000 -28.5000 main 1466 1439 _____________O -1 37.1000 -28.5000 HU 65 8 75
1860245N20333 1860 25 NA NA NOT_NAMED 1860-09-08 03:00:00 TS 37.1998 -27.9999 main 1439 1413 _____________P -1 37.1998 -27.9999 HU 65 8 76
1860245N20333 1860 25 NA NA NOT_NAMED 1860-09-08 06:00:00 TS 37.3000 -27.5000 main 1413 1388 _____________O -1 37.3000 -27.5000 HU 65 8 76
1860245N20333 1860 25 NA NA NOT_NAMED 1860-09-08 09:00:00 TS 37.4004 -27.0003 main 1388 1365 _____________P -1 37.4004 -27.0003 HU 57 8 76
1860245N20333 1860 25 NA NA NOT_NAMED 1860-09-08 12:00:00 TS 37.5000 -26.5000 main 1365 _____________O -1 37.5000 -26.5000 TS 50 8 76

IBTrACS Databaseについて

本データベースは、米国NOAAが公開する1842年以降の世界の熱帯低気圧のベストトラックデータアーカイブInternational Best Track Archive for Climate Stewardship (IBTrACS)を、ウェブで閲覧しやすい形式に変換したものです。

最終更新日:2021-12-03